sensor_id;sensor_type;location;lat;lon;timestamp;P1;durP1;ratioP1;P2;durP2;ratioP2
69463;SDS011;56665;41.106;16.688;2022-10-16T00:02:38;34.70;;;18.67;;
69463;SDS011;56665;41.106;16.688;2022-10-16T00:05:43;34.88;;;18.83;;
69463;SDS011;56665;41.106;16.688;2022-10-16T00:08:47;34.65;;;18.23;;
69463;SDS011;56665;41.106;16.688;2022-10-16T00:11:51;33.28;;;18.02;;
69463;SDS011;56665;41.106;16.688;2022-10-16T00:14:56;33.10;;;17.83;;
69463;SDS011;56665;41.106;16.688;2022-10-16T00:18:03;32.93;;;17.50;;
69463;SDS011;56665;41.106;16.688;2022-10-16T00:21:08;31.13;;;17.63;;
69463;SDS011;56665;41.106;16.688;2022-10-16T00:24:33;33.28;;;18.60;;
69463;SDS011;56665;41.106;16.688;2022-10-16T00:27:36;31.98;;;17.88;;
69463;SDS011;56665;41.106;16.688;2022-10-16T00:30:41;35.42;;;18.95;;
69463;SDS011;56665;41.106;16.688;2022-10-16T00:33:45;34.60;;;18.23;;
69463;SDS011;56665;41.106;16.688;2022-10-16T00:36:52;30.83;;;18.00;;
69463;SDS011;56665;41.106;16.688;2022-10-16T00:39:56;31.50;;;18.65;;
69463;SDS011;56665;41.106;16.688;2022-10-16T00:43:00;32.70;;;17.67;;
69463;SDS011;56665;41.106;16.688;2022-10-16T00:46:14;31.73;;;17.45;;
69463;SDS011;56665;41.106;16.688;2022-10-16T00:49:25;33.73;;;17.60;;
69463;SDS011;56665;41.106;16.688;2022-10-16T00:52:29;29.92;;;17.10;;
69463;SDS011;56665;41.106;16.688;2022-10-16T00:55:33;34.92;;;18.33;;
69463;SDS011;56665;41.106;16.688;2022-10-16T00:58:37;33.15;;;17.50;;
69463;SDS011;56665;41.106;16.688;2022-10-16T01:01:42;33.20;;;18.58;;
69463;SDS011;56665;41.106;16.688;2022-10-16T01:04:48;30.23;;;16.70;;
69463;SDS011;56665;41.106;16.688;2022-10-16T01:08:00;32.40;;;17.08;;
69463;SDS011;56665;41.106;16.688;2022-10-16T01:17:51;32.38;;;17.63;;
69463;SDS011;56665;41.106;16.688;2022-10-16T01:21:04;30.20;;;17.63;;
69463;SDS011;56665;41.106;16.688;2022-10-16T01:24:15;37.13;;;18.80;;
69463;SDS011;56665;41.106;16.688;2022-10-16T01:27:39;30.08;;;17.52;;
69463;SDS011;56665;41.106;16.688;2022-10-16T01:30:45;27.65;;;16.25;;
69463;SDS011;56665;41.106;16.688;2022-10-16T01:34:00;30.27;;;17.10;;
69463;SDS011;56665;41.106;16.688;2022-10-16T01:37:11;31.73;;;18.00;;
69463;SDS011;56665;41.106;16.688;2022-10-16T01:40:18;31.38;;;17.45;;
69463;SDS011;56665;41.106;16.688;2022-10-16T01:43:31;31.15;;;17.13;;
69463;SDS011;56665;41.106;16.688;2022-10-16T01:46:39;32.90;;;16.88;;
69463;SDS011;56665;41.106;16.688;2022-10-16T01:49:45;30.63;;;16.63;;
69463;SDS011;56665;41.106;16.688;2022-10-16T01:52:51;31.83;;;16.40;;
69463;SDS011;56665;41.106;16.688;2022-10-16T01:55:57;33.13;;;17.30;;
69463;SDS011;56665;41.106;16.688;2022-10-16T01:59:04;30.48;;;17.45;;
69463;SDS011;56665;41.106;16.688;2022-10-16T02:02:13;33.35;;;17.92;;
69463;SDS011;56665;41.106;16.688;2022-10-16T02:05:23;30.70;;;17.48;;
69463;SDS011;56665;41.106;16.688;2022-10-16T02:08:31;32.03;;;16.27;;
69463;SDS011;56665;41.106;16.688;2022-10-16T02:11:36;30.42;;;16.38;;
69463;SDS011;56665;41.106;16.688;2022-10-16T02:14:40;32.53;;;17.15;;
69463;SDS011;56665;41.106;16.688;2022-10-16T02:17:45;29.63;;;16.73;;
69463;SDS011;56665;41.106;16.688;2022-10-16T02:20:55;29.48;;;16.15;;
69463;SDS011;56665;41.106;16.688;2022-10-16T02:27:44;33.65;;;18.45;;
69463;SDS011;56665;41.106;16.688;2022-10-16T02:31:01;31.67;;;18.10;;
69463;SDS011;56665;41.106;16.688;2022-10-16T02:34:07;29.80;;;16.40;;
69463;SDS011;56665;41.106;16.688;2022-10-16T02:37:15;30.83;;;17.05;;
69463;SDS011;56665;41.106;16.688;2022-10-16T02:40:20;30.17;;;16.70;;
69463;SDS011;56665;41.106;16.688;2022-10-16T02:43:24;29.67;;;16.67;;
69463;SDS011;56665;41.106;16.688;2022-10-16T02:46:29;32.08;;;16.85;;
69463;SDS011;56665;41.106;16.688;2022-10-16T02:49:33;32.35;;;17.50;;
69463;SDS011;56665;41.106;16.688;2022-10-16T02:52:36;29.73;;;15.98;;
69463;SDS011;56665;41.106;16.688;2022-10-16T02:55:41;29.83;;;16.90;;
69463;SDS011;56665;41.106;16.688;2022-10-16T02:58:45;27.95;;;16.15;;
69463;SDS011;56665;41.106;16.688;2022-10-16T03:01:49;28.85;;;16.25;;
69463;SDS011;56665;41.106;16.688;2022-10-16T03:04:52;32.10;;;17.20;;
69463;SDS011;56665;41.106;16.688;2022-10-16T03:07:56;30.25;;;16.67;;
69463;SDS011;56665;41.106;16.688;2022-10-16T03:11:03;34.50;;;17.73;;
69463;SDS011;56665;41.106;16.688;2022-10-16T03:14:07;31.77;;;16.67;;
69463;SDS011;56665;41.106;16.688;2022-10-16T03:17:12;31.48;;;16.90;;
69463;SDS011;56665;41.106;16.688;2022-10-16T03:20:17;30.13;;;16.73;;
69463;SDS011;56665;41.106;16.688;2022-10-16T03:23:21;30.42;;;17.50;;
69463;SDS011;56665;41.106;16.688;2022-10-16T03:26:24;32.93;;;17.73;;
69463;SDS011;56665;41.106;16.688;2022-10-16T03:29:28;30.38;;;16.00;;
69463;SDS011;56665;41.106;16.688;2022-10-16T03:32:32;34.47;;;17.02;;
69463;SDS011;56665;41.106;16.688;2022-10-16T03:35:36;33.45;;;16.38;;
69463;SDS011;56665;41.106;16.688;2022-10-16T03:38:40;30.00;;;16.52;;
69463;SDS011;56665;41.106;16.688;2022-10-16T03:41:43;30.43;;;15.47;;
69463;SDS011;56665;41.106;16.688;2022-10-16T03:44:47;29.63;;;15.77;;
69463;SDS011;56665;41.106;16.688;2022-10-16T03:47:52;30.67;;;16.30;;
69463;SDS011;56665;41.106;16.688;2022-10-16T03:50:56;27.55;;;15.38;;
69463;SDS011;56665;41.106;16.688;2022-10-16T03:54:00;28.67;;;15.68;;
69463;SDS011;56665;41.106;16.688;2022-10-16T03:57:04;29.73;;;15.63;;
69463;SDS011;56665;41.106;16.688;2022-10-16T04:00:08;28.00;;;15.23;;
69463;SDS011;56665;41.106;16.688;2022-10-16T04:03:15;27.75;;;15.13;;
69463;SDS011;56665;41.106;16.688;2022-10-16T04:06:20;30.05;;;14.88;;
69463;SDS011;56665;41.106;16.688;2022-10-16T04:09:25;29.48;;;15.93;;
69463;SDS011;56665;41.106;16.688;2022-10-16T04:12:29;29.87;;;15.47;;
69463;SDS011;56665;41.106;16.688;2022-10-16T04:15:33;31.42;;;14.95;;
69463;SDS011;56665;41.106;16.688;2022-10-16T04:18:37;29.95;;;16.27;;
69463;SDS011;56665;41.106;16.688;2022-10-16T04:21:41;31.33;;;15.77;;
69463;SDS011;56665;41.106;16.688;2022-10-16T04:24:45;32.45;;;16.83;;
69463;SDS011;56665;41.106;16.688;2022-10-16T04:27:49;33.73;;;17.20;;
69463;SDS011;56665;41.106;16.688;2022-10-16T04:30:53;31.85;;;15.95;;
69463;SDS011;56665;41.106;16.688;2022-10-16T04:33:57;30.30;;;16.73;;
69463;SDS011;56665;41.106;16.688;2022-10-16T04:37:01;31.60;;;16.48;;
69463;SDS011;56665;41.106;16.688;2022-10-16T04:40:04;31.55;;;16.30;;
69463;SDS011;56665;41.106;16.688;2022-10-16T04:43:10;31.83;;;16.03;;
69463;SDS011;56665;41.106;16.688;2022-10-16T04:46:15;32.40;;;16.67;;
69463;SDS011;56665;41.106;16.688;2022-10-16T04:49:19;27.05;;;16.08;;
69463;SDS011;56665;41.106;16.688;2022-10-16T04:52:23;29.38;;;15.50;;
69463;SDS011;56665;41.106;16.688;2022-10-16T04:55:28;31.08;;;16.80;;
69463;SDS011;56665;41.106;16.688;2022-10-16T04:58:33;29.70;;;16.13;;
69463;SDS011;56665;41.106;16.688;2022-10-16T05:01:36;30.08;;;15.52;;
69463;SDS011;56665;41.106;16.688;2022-10-16T05:04:40;32.45;;;16.80;;
69463;SDS011;56665;41.106;16.688;2022-10-16T05:07:45;32.42;;;16.75;;
69463;SDS011;56665;41.106;16.688;2022-10-16T05:10:53;31.88;;;16.75;;
69463;SDS011;56665;41.106;16.688;2022-10-16T05:13:58;32.10;;;16.87;;
69463;SDS011;56665;41.106;16.688;2022-10-16T05:17:02;34.72;;;16.98;;
69463;SDS011;56665;41.106;16.688;2022-10-16T05:20:06;29.50;;;15.90;;
69463;SDS011;56665;41.106;16.688;2022-10-16T05:23:10;36.13;;;16.83;;
69463;SDS011;56665;41.106;16.688;2022-10-16T05:26:15;32.72;;;16.98;;
69463;SDS011;56665;41.106;16.688;2022-10-16T05:29:18;33.93;;;16.73;;
69463;SDS011;56665;41.106;16.688;2022-10-16T05:32:23;33.20;;;17.63;;
69463;SDS011;56665;41.106;16.688;2022-10-16T05:35:27;30.25;;;16.92;;
69463;SDS011;56665;41.106;16.688;2022-10-16T05:38:31;33.00;;;17.00;;
69463;SDS011;56665;41.106;16.688;2022-10-16T05:41:35;32.75;;;16.83;;
69463;SDS011;56665;41.106;16.688;2022-10-16T05:44:38;34.33;;;17.77;;
69463;SDS011;56665;41.106;16.688;2022-10-16T05:47:44;34.72;;;17.77;;
69463;SDS011;56665;41.106;16.688;2022-10-16T05:50:48;32.80;;;18.55;;
69463;SDS011;56665;41.106;16.688;2022-10-16T05:53:52;34.00;;;18.00;;
69463;SDS011;56665;41.106;16.688;2022-10-16T05:56:57;33.13;;;17.70;;
69463;SDS011;56665;41.106;16.688;2022-10-16T06:00:02;32.13;;;16.97;;
69463;SDS011;56665;41.106;16.688;2022-10-16T06:03:16;32.50;;;18.35;;
69463;SDS011;56665;41.106;16.688;2022-10-16T06:06:22;28.23;;;17.15;;
69463;SDS011;56665;41.106;16.688;2022-10-16T06:09:29;29.92;;;17.08;;
69463;SDS011;56665;41.106;16.688;2022-10-16T06:12:33;32.83;;;17.92;;
69463;SDS011;56665;41.106;16.688;2022-10-16T06:15:38;33.20;;;17.40;;
69463;SDS011;56665;41.106;16.688;2022-10-16T06:18:42;33.65;;;17.17;;
69463;SDS011;56665;41.106;16.688;2022-10-16T06:21:46;28.95;;;17.08;;
69463;SDS011;56665;41.106;16.688;2022-10-16T06:24:50;31.95;;;16.23;;
69463;SDS011;56665;41.106;16.688;2022-10-16T06:27:53;29.63;;;17.00;;
69463;SDS011;56665;41.106;16.688;2022-10-16T06:31:00;28.60;;;15.63;;
69463;SDS011;56665;41.106;16.688;2022-10-16T06:34:10;31.67;;;17.52;;
69463;SDS011;56665;41.106;16.688;2022-10-16T06:37:14;29.20;;;17.60;;
69463;SDS011;56665;41.106;16.688;2022-10-16T06:40:19;30.90;;;18.05;;
69463;SDS011;56665;41.106;16.688;2022-10-16T06:43:24;30.10;;;17.08;;
69463;SDS011;56665;41.106;16.688;2022-10-16T06:46:28;28.27;;;16.10;;
69463;SDS011;56665;41.106;16.688;2022-10-16T06:49:32;29.13;;;17.42;;
69463;SDS011;56665;41.106;16.688;2022-10-16T06:52:36;29.88;;;17.83;;
69463;SDS011;56665;41.106;16.688;2022-10-16T06:55:40;31.08;;;17.40;;
69463;SDS011;56665;41.106;16.688;2022-10-16T06:58:44;28.73;;;17.58;;
69463;SDS011;56665;41.106;16.688;2022-10-16T07:01:48;30.23;;;17.73;;
69463;SDS011;56665;41.106;16.688;2022-10-16T07:04:52;29.40;;;17.33;;
69463;SDS011;56665;41.106;16.688;2022-10-16T07:07:56;28.48;;;18.38;;
69463;SDS011;56665;41.106;16.688;2022-10-16T07:11:01;27.90;;;17.35;;
69463;SDS011;56665;41.106;16.688;2022-10-16T07:14:18;28.17;;;17.73;;
69463;SDS011;56665;41.106;16.688;2022-10-16T07:17:23;25.33;;;16.97;;
69463;SDS011;56665;41.106;16.688;2022-10-16T07:20:27;29.27;;;17.65;;
69463;SDS011;56665;41.106;16.688;2022-10-16T07:23:31;29.95;;;17.83;;
69463;SDS011;56665;41.106;16.688;2022-10-16T07:26:38;29.00;;;18.40;;
69463;SDS011;56665;41.106;16.688;2022-10-16T07:29:43;27.02;;;17.98;;
69463;SDS011;56665;41.106;16.688;2022-10-16T07:32:48;29.77;;;18.50;;
69463;SDS011;56665;41.106;16.688;2022-10-16T07:35:53;29.92;;;19.63;;
69463;SDS011;56665;41.106;16.688;2022-10-16T07:38:58;31.40;;;20.52;;
69463;SDS011;56665;41.106;16.688;2022-10-16T07:42:02;37.60;;;26.15;;
69463;SDS011;56665;41.106;16.688;2022-10-16T07:45:06;36.67;;;27.75;;
69463;SDS011;56665;41.106;16.688;2022-10-16T07:48:11;31.70;;;22.57;;
69463;SDS011;56665;41.106;16.688;2022-10-16T07:51:19;28.90;;;20.17;;
69463;SDS011;56665;41.106;16.688;2022-10-16T07:54:25;35.42;;;23.60;;
69463;SDS011;56665;41.106;16.688;2022-10-16T07:57:29;34.20;;;25.65;;
69463;SDS011;56665;41.106;16.688;2022-10-16T08:00:35;31.90;;;24.13;;
69463;SDS011;56665;41.106;16.688;2022-10-16T08:03:44;28.33;;;21.27;;
69463;SDS011;56665;41.106;16.688;2022-10-16T08:06:51;30.58;;;21.80;;
69463;SDS011;56665;41.106;16.688;2022-10-16T08:09:55;30.63;;;22.33;;
69463;SDS011;56665;41.106;16.688;2022-10-16T08:13:01;31.48;;;24.60;;
69463;SDS011;56665;41.106;16.688;2022-10-16T08:16:06;30.60;;;22.65;;
69463;SDS011;56665;41.106;16.688;2022-10-16T08:19:11;27.23;;;21.23;;
69463;SDS011;56665;41.106;16.688;2022-10-16T08:22:16;32.58;;;22.20;;
69463;SDS011;56665;41.106;16.688;2022-10-16T08:25:20;29.77;;;22.30;;
69463;SDS011;56665;41.106;16.688;2022-10-16T08:28:24;37.75;;;27.45;;
69463;SDS011;56665;41.106;16.688;2022-10-16T08:31:28;32.00;;;24.52;;
69463;SDS011;56665;41.106;16.688;2022-10-16T08:34:33;31.27;;;23.57;;
69463;SDS011;56665;41.106;16.688;2022-10-16T08:37:36;30.30;;;25.00;;
69463;SDS011;56665;41.106;16.688;2022-10-16T08:40:42;31.77;;;22.85;;
69463;SDS011;56665;41.106;16.688;2022-10-16T08:47:33;26.98;;;19.92;;
69463;SDS011;56665;41.106;16.688;2022-10-16T08:51:02;27.63;;;18.90;;
69463;SDS011;56665;41.106;16.688;2022-10-16T08:57:31;28.08;;;19.50;;
69463;SDS011;56665;41.106;16.688;2022-10-16T09:00:35;26.58;;;19.85;;
69463;SDS011;56665;41.106;16.688;2022-10-16T09:10:48;31.13;;;25.58;;
69463;SDS011;56665;41.106;16.688;2022-10-16T09:14:23;31.45;;;22.92;;
69463;SDS011;56665;41.106;16.688;2022-10-16T09:17:52;28.02;;;21.20;;
69463;SDS011;56665;41.106;16.688;2022-10-16T09:21:30;29.73;;;22.08;;
69463;SDS011;56665;41.106;16.688;2022-10-16T09:24:36;26.33;;;19.93;;
69463;SDS011;56665;41.106;16.688;2022-10-16T09:27:42;25.83;;;20.63;;
69463;SDS011;56665;41.106;16.688;2022-10-16T09:30:49;25.05;;;18.23;;
69463;SDS011;56665;41.106;16.688;2022-10-16T09:33:55;28.33;;;19.70;;
69463;SDS011;56665;41.106;16.688;2022-10-16T09:37:05;27.52;;;19.52;;
69463;SDS011;56665;41.106;16.688;2022-10-16T09:40:23;25.83;;;18.57;;
69463;SDS011;56665;41.106;16.688;2022-10-16T09:43:40;25.30;;;18.17;;
69463;SDS011;56665;41.106;16.688;2022-10-16T09:47:15;26.95;;;20.40;;
69463;SDS011;56665;41.106;16.688;2022-10-16T09:50:23;25.65;;;20.10;;
69463;SDS011;56665;41.106;16.688;2022-10-16T09:53:40;25.23;;;19.52;;
69463;SDS011;56665;41.106;16.688;2022-10-16T09:56:48;26.33;;;20.10;;
69463;SDS011;56665;41.106;16.688;2022-10-16T09:59:55;33.17;;;23.77;;
69463;SDS011;56665;41.106;16.688;2022-10-16T10:03:01;25.67;;;19.77;;
69463;SDS011;56665;41.106;16.688;2022-10-16T10:06:23;28.38;;;20.38;;
69463;SDS011;56665;41.106;16.688;2022-10-16T10:09:31;27.55;;;19.55;;
69463;SDS011;56665;41.106;16.688;2022-10-16T10:12:41;25.40;;;18.07;;
69463;SDS011;56665;41.106;16.688;2022-10-16T10:15:45;27.85;;;19.67;;
69463;SDS011;56665;41.106;16.688;2022-10-16T10:18:57;30.42;;;19.70;;
69463;SDS011;56665;41.106;16.688;2022-10-16T10:22:01;27.23;;;20.00;;
69463;SDS011;56665;41.106;16.688;2022-10-16T10:28:39;26.53;;;17.93;;
69463;SDS011;56665;41.106;16.688;2022-10-16T10:32:14;28.00;;;18.67;;
69463;SDS011;56665;41.106;16.688;2022-10-16T10:35:22;28.48;;;20.95;;
69463;SDS011;56665;41.106;16.688;2022-10-16T10:38:31;25.50;;;18.50;;
69463;SDS011;56665;41.106;16.688;2022-10-16T11:00:28;26.95;;;19.80;;
69463;SDS011;56665;41.106;16.688;2022-10-16T11:07:23;26.23;;;18.58;;
69463;SDS011;56665;41.106;16.688;2022-10-16T11:10:33;23.17;;;18.60;;
69463;SDS011;56665;41.106;16.688;2022-10-16T11:17:19;25.00;;;18.65;;
69463;SDS011;56665;41.106;16.688;2022-10-16T11:20:57;26.33;;;18.53;;
69463;SDS011;56665;41.106;16.688;2022-10-16T11:24:18;27.75;;;19.45;;
69463;SDS011;56665;41.106;16.688;2022-10-16T11:31:24;29.35;;;21.73;;
69463;SDS011;56665;41.106;16.688;2022-10-16T11:34:48;32.75;;;22.33;;
69463;SDS011;56665;41.106;16.688;2022-10-16T11:37:55;28.20;;;19.50;;
69463;SDS011;56665;41.106;16.688;2022-10-16T11:41:08;25.45;;;18.05;;
69463;SDS011;56665;41.106;16.688;2022-10-16T11:47:35;27.95;;;18.05;;
69463;SDS011;56665;41.106;16.688;2022-10-16T11:57:56;33.60;;;24.02;;
69463;SDS011;56665;41.106;16.688;2022-10-16T12:01:14;31.23;;;21.80;;
69463;SDS011;56665;41.106;16.688;2022-10-16T12:04:26;31.20;;;22.02;;
69463;SDS011;56665;41.106;16.688;2022-10-16T12:07:50;28.27;;;20.48;;
69463;SDS011;56665;41.106;16.688;2022-10-16T12:14:41;33.13;;;20.70;;
69463;SDS011;56665;41.106;16.688;2022-10-16T12:17:45;33.38;;;22.38;;
69463;SDS011;56665;41.106;16.688;2022-10-16T12:20:56;30.13;;;20.55;;
69463;SDS011;56665;41.106;16.688;2022-10-16T12:24:21;30.27;;;19.75;;
69463;SDS011;56665;41.106;16.688;2022-10-16T12:30:35;32.75;;;23.50;;
69463;SDS011;56665;41.106;16.688;2022-10-16T12:33:41;30.05;;;21.27;;
69463;SDS011;56665;41.106;16.688;2022-10-16T12:37:07;29.60;;;21.25;;
69463;SDS011;56665;41.106;16.688;2022-10-16T12:40:26;33.03;;;22.50;;
69463;SDS011;56665;41.106;16.688;2022-10-16T12:43:40;42.03;;;32.53;;
69463;SDS011;56665;41.106;16.688;2022-10-16T12:46:45;43.60;;;30.67;;
69463;SDS011;56665;41.106;16.688;2022-10-16T12:49:52;28.98;;;20.13;;
69463;SDS011;56665;41.106;16.688;2022-10-16T12:52:59;38.83;;;26.52;;
69463;SDS011;56665;41.106;16.688;2022-10-16T12:56:21;39.92;;;31.95;;
69463;SDS011;56665;41.106;16.688;2022-10-16T12:59:44;36.23;;;24.57;;
69463;SDS011;56665;41.106;16.688;2022-10-16T13:06:39;28.77;;;20.83;;
69463;SDS011;56665;41.106;16.688;2022-10-16T13:24:28;26.25;;;16.85;;
69463;SDS011;56665;41.106;16.688;2022-10-16T13:28:00;24.67;;;17.35;;
69463;SDS011;56665;41.106;16.688;2022-10-16T13:31:20;25.15;;;17.02;;
69463;SDS011;56665;41.106;16.688;2022-10-16T13:34:47;29.90;;;19.80;;
69463;SDS011;56665;41.106;16.688;2022-10-16T13:38:02;27.88;;;18.88;;
69463;SDS011;56665;41.106;16.688;2022-10-16T13:41:17;27.80;;;18.65;;
69463;SDS011;56665;41.106;16.688;2022-10-16T13:44:21;26.23;;;17.20;;
69463;SDS011;56665;41.106;16.688;2022-10-16T13:47:26;24.02;;;17.02;;
69463;SDS011;56665;41.106;16.688;2022-10-16T13:50:31;29.17;;;17.90;;
69463;SDS011;56665;41.106;16.688;2022-10-16T13:53:37;28.40;;;17.85;;
69463;SDS011;56665;41.106;16.688;2022-10-16T13:56:41;26.60;;;17.05;;
69463;SDS011;56665;41.106;16.688;2022-10-16T13:59:44;27.10;;;17.92;;
69463;SDS011;56665;41.106;16.688;2022-10-16T14:03:00;25.00;;;17.20;;
69463;SDS011;56665;41.106;16.688;2022-10-16T14:06:06;26.63;;;17.53;;
69463;SDS011;56665;41.106;16.688;2022-10-16T14:09:24;26.23;;;17.38;;
69463;SDS011;56665;41.106;16.688;2022-10-16T14:12:29;28.65;;;18.50;;
69463;SDS011;56665;41.106;16.688;2022-10-16T14:15:37;27.15;;;17.90;;
69463;SDS011;56665;41.106;16.688;2022-10-16T14:18:40;28.25;;;18.45;;
69463;SDS011;56665;41.106;16.688;2022-10-16T14:21:44;26.77;;;17.03;;
69463;SDS011;56665;41.106;16.688;2022-10-16T14:28:43;29.90;;;19.60;;
69463;SDS011;56665;41.106;16.688;2022-10-16T14:35:04;27.33;;;18.80;;
69463;SDS011;56665;41.106;16.688;2022-10-16T14:38:26;28.70;;;19.73;;
69463;SDS011;56665;41.106;16.688;2022-10-16T14:41:30;32.75;;;20.58;;
69463;SDS011;56665;41.106;16.688;2022-10-16T14:44:35;29.52;;;20.33;;
69463;SDS011;56665;41.106;16.688;2022-10-16T14:47:46;32.85;;;20.48;;
69463;SDS011;56665;41.106;16.688;2022-10-16T14:50:53;30.55;;;19.40;;
69463;SDS011;56665;41.106;16.688;2022-10-16T14:53:57;29.70;;;19.30;;
69463;SDS011;56665;41.106;16.688;2022-10-16T14:57:00;34.55;;;20.70;;
69463;SDS011;56665;41.106;16.688;2022-10-16T15:00:23;31.70;;;20.77;;
69463;SDS011;56665;41.106;16.688;2022-10-16T15:03:27;36.72;;;22.70;;
69463;SDS011;56665;41.106;16.688;2022-10-16T15:06:31;31.95;;;21.23;;
69463;SDS011;56665;41.106;16.688;2022-10-16T15:09:35;36.97;;;21.40;;
69463;SDS011;56665;41.106;16.688;2022-10-16T15:12:40;32.25;;;21.13;;
69463;SDS011;56665;41.106;16.688;2022-10-16T15:15:44;31.60;;;19.77;;
69463;SDS011;56665;41.106;16.688;2022-10-16T15:18:49;34.70;;;21.80;;
69463;SDS011;56665;41.106;16.688;2022-10-16T15:21:53;35.17;;;22.10;;
69463;SDS011;56665;41.106;16.688;2022-10-16T15:24:58;38.57;;;23.37;;
69463;SDS011;56665;41.106;16.688;2022-10-16T15:28:02;38.97;;;24.52;;
69463;SDS011;56665;41.106;16.688;2022-10-16T15:31:07;38.70;;;23.23;;
69463;SDS011;56665;41.106;16.688;2022-10-16T15:34:11;37.97;;;22.25;;
69463;SDS011;56665;41.106;16.688;2022-10-16T15:37:16;34.17;;;21.00;;
69463;SDS011;56665;41.106;16.688;2022-10-16T15:40:20;39.30;;;23.00;;
69463;SDS011;56665;41.106;16.688;2022-10-16T15:43:25;42.70;;;26.15;;
69463;SDS011;56665;41.106;16.688;2022-10-16T15:46:31;40.35;;;25.83;;
69463;SDS011;56665;41.106;16.688;2022-10-16T15:49:37;42.10;;;24.30;;
69463;SDS011;56665;41.106;16.688;2022-10-16T15:52:41;40.53;;;24.65;;
69463;SDS011;56665;41.106;16.688;2022-10-16T15:55:45;36.30;;;22.10;;
69463;SDS011;56665;41.106;16.688;2022-10-16T15:58:48;36.70;;;22.15;;
69463;SDS011;56665;41.106;16.688;2022-10-16T16:01:52;40.65;;;21.92;;
69463;SDS011;56665;41.106;16.688;2022-10-16T16:04:57;37.80;;;22.08;;
69463;SDS011;56665;41.106;16.688;2022-10-16T16:11:55;42.67;;;23.90;;
69463;SDS011;56665;41.106;16.688;2022-10-16T16:15:00;41.70;;;23.73;;
69463;SDS011;56665;41.106;16.688;2022-10-16T16:18:04;43.15;;;25.58;;
69463;SDS011;56665;41.106;16.688;2022-10-16T16:21:13;42.22;;;23.63;;
69463;SDS011;56665;41.106;16.688;2022-10-16T16:24:17;39.67;;;23.20;;
69463;SDS011;56665;41.106;16.688;2022-10-16T16:27:21;42.77;;;24.60;;
69463;SDS011;56665;41.106;16.688;2022-10-16T16:30:25;42.85;;;24.50;;
69463;SDS011;56665;41.106;16.688;2022-10-16T16:33:30;43.35;;;25.02;;
69463;SDS011;56665;41.106;16.688;2022-10-16T16:36:36;48.38;;;26.85;;
69463;SDS011;56665;41.106;16.688;2022-10-16T16:39:39;39.10;;;23.85;;
69463;SDS011;56665;41.106;16.688;2022-10-16T16:42:43;46.40;;;25.67;;
69463;SDS011;56665;41.106;16.688;2022-10-16T16:45:47;43.33;;;24.52;;
69463;SDS011;56665;41.106;16.688;2022-10-16T16:48:54;49.00;;;28.52;;
69463;SDS011;56665;41.106;16.688;2022-10-16T16:52:00;45.20;;;26.02;;
69463;SDS011;56665;41.106;16.688;2022-10-16T16:58:37;43.90;;;25.20;;
69463;SDS011;56665;41.106;16.688;2022-10-16T17:01:42;42.38;;;25.17;;
69463;SDS011;56665;41.106;16.688;2022-10-16T17:04:46;47.42;;;25.60;;
69463;SDS011;56665;41.106;16.688;2022-10-16T17:07:51;47.42;;;25.23;;
69463;SDS011;56665;41.106;16.688;2022-10-16T17:10:55;45.33;;;25.45;;
69463;SDS011;56665;41.106;16.688;2022-10-16T17:14:00;44.73;;;25.10;;
69463;SDS011;56665;41.106;16.688;2022-10-16T17:17:06;44.42;;;25.77;;
69463;SDS011;56665;41.106;16.688;2022-10-16T17:20:10;44.33;;;25.35;;
69463;SDS011;56665;41.106;16.688;2022-10-16T17:23:14;44.30;;;24.92;;
69463;SDS011;56665;41.106;16.688;2022-10-16T17:26:18;45.20;;;24.52;;
69463;SDS011;56665;41.106;16.688;2022-10-16T17:29:22;42.75;;;24.75;;
69463;SDS011;56665;41.106;16.688;2022-10-16T17:32:26;41.22;;;23.60;;
69463;SDS011;56665;41.106;16.688;2022-10-16T17:35:40;41.33;;;23.02;;
69463;SDS011;56665;41.106;16.688;2022-10-16T17:38:49;41.90;;;24.90;;
69463;SDS011;56665;41.106;16.688;2022-10-16T17:41:53;43.30;;;24.33;;
69463;SDS011;56665;41.106;16.688;2022-10-16T17:44:57;47.78;;;25.08;;
69463;SDS011;56665;41.106;16.688;2022-10-16T17:48:02;44.38;;;24.88;;
69463;SDS011;56665;41.106;16.688;2022-10-16T17:51:06;46.25;;;25.48;;
69463;SDS011;56665;41.106;16.688;2022-10-16T17:54:12;43.35;;;24.83;;
69463;SDS011;56665;41.106;16.688;2022-10-16T17:57:16;48.35;;;24.67;;
69463;SDS011;56665;41.106;16.688;2022-10-16T18:00:20;41.60;;;24.37;;
69463;SDS011;56665;41.106;16.688;2022-10-16T18:03:24;50.10;;;25.40;;
69463;SDS011;56665;41.106;16.688;2022-10-16T18:06:29;44.88;;;25.60;;
69463;SDS011;56665;41.106;16.688;2022-10-16T18:09:35;42.35;;;23.33;;
69463;SDS011;56665;41.106;16.688;2022-10-16T18:12:39;43.65;;;24.45;;
69463;SDS011;56665;41.106;16.688;2022-10-16T18:15:43;43.73;;;23.87;;
69463;SDS011;56665;41.106;16.688;2022-10-16T18:18:47;40.10;;;22.13;;
69463;SDS011;56665;41.106;16.688;2022-10-16T18:21:51;41.85;;;22.73;;
69463;SDS011;56665;41.106;16.688;2022-10-16T18:24:58;41.50;;;23.48;;
69463;SDS011;56665;41.106;16.688;2022-10-16T18:28:01;41.17;;;22.77;;
69463;SDS011;56665;41.106;16.688;2022-10-16T18:31:06;41.17;;;23.73;;
69463;SDS011;56665;41.106;16.688;2022-10-16T18:34:13;46.10;;;24.02;;
69463;SDS011;56665;41.106;16.688;2022-10-16T18:37:17;42.22;;;23.80;;
69463;SDS011;56665;41.106;16.688;2022-10-16T18:40:22;44.03;;;24.73;;
69463;SDS011;56665;41.106;16.688;2022-10-16T18:43:29;37.83;;;23.10;;
69463;SDS011;56665;41.106;16.688;2022-10-16T18:46:32;45.03;;;25.23;;
69463;SDS011;56665;41.106;16.688;2022-10-16T18:49:36;51.83;;;28.15;;
69463;SDS011;56665;41.106;16.688;2022-10-16T18:52:45;61.33;;;32.85;;
69463;SDS011;56665;41.106;16.688;2022-10-16T18:55:51;53.13;;;29.98;;
69463;SDS011;56665;41.106;16.688;2022-10-16T18:58:57;59.10;;;32.65;;
69463;SDS011;56665;41.106;16.688;2022-10-16T19:02:02;68.60;;;38.93;;
69463;SDS011;56665;41.106;16.688;2022-10-16T19:05:06;56.38;;;30.83;;
69463;SDS011;56665;41.106;16.688;2022-10-16T19:08:13;55.22;;;31.30;;
69463;SDS011;56665;41.106;16.688;2022-10-16T19:11:19;52.67;;;28.08;;
69463;SDS011;56665;41.106;16.688;2022-10-16T19:14:24;54.67;;;31.45;;
69463;SDS011;56665;41.106;16.688;2022-10-16T19:17:28;58.05;;;34.85;;
69463;SDS011;56665;41.106;16.688;2022-10-16T19:20:33;58.58;;;34.90;;
69463;SDS011;56665;41.106;16.688;2022-10-16T19:23:37;48.97;;;27.50;;
69463;SDS011;56665;41.106;16.688;2022-10-16T19:26:43;41.03;;;23.35;;
69463;SDS011;56665;41.106;16.688;2022-10-16T19:29:49;39.83;;;21.75;;
69463;SDS011;56665;41.106;16.688;2022-10-16T19:32:53;39.37;;;21.60;;
69463;SDS011;56665;41.106;16.688;2022-10-16T19:36:10;37.70;;;20.55;;
69463;SDS011;56665;41.106;16.688;2022-10-16T19:39:20;37.72;;;21.65;;
69463;SDS011;56665;41.106;16.688;2022-10-16T19:42:23;40.03;;;22.10;;
69463;SDS011;56665;41.106;16.688;2022-10-16T19:45:27;36.47;;;20.02;;
69463;SDS011;56665;41.106;16.688;2022-10-16T19:48:33;35.20;;;21.03;;